CheckWX is a tool to help pilots better visualize weather data.  It is not intended as a substitute for an official pre-flight weather briefing.

13:21:07 UTC

KSAR METAR
Sparta Community-Hunter Field Airport
Sparta, Illinois, USA
Current

6 mins ago

KSAR 211315Z AUTO 17005KT 10SM OVC090 22/20 A3019 RMK AO2 T02230195
Observed
Sep-21 @ 13:15 UTC
Wind
  • 170° at 5 KTS
Visibility
10 SM
Flight Rules
VFR
Cloud Levels
  • Overcast at 9,000' AGL
Temperature
22°C / 72°F
Dewpoint
20°C / 68°F
Humidity
88%
Altimeter
30.19" Hg
Pressure
1022.32 hPa
Previous

26 mins ago

KSAR 211255Z AUTO 17007KT 10SM -RA OVC090 22/20 A3019 RMK AO2 T02210196
Observed
Sep-21 @ 12:55 UTC
Wind
  • 170° at 7 KTS
Visibility
10 SM
Flight Rules
VFR
Conditions
Light Rain
Cloud Levels
  • Overcast at 9,000' AGL
Temperature
22°C / 72°F
Dewpoint
20°C / 68°F
Humidity
88%
Altimeter
30.19" Hg
Pressure
1022.32 hPa
Previous

46 mins ago

KSAR 211235Z AUTO 17006KT 10SM OVC100 22/20 A3018 RMK AO2 T02200197
Observed
Sep-21 @ 12:35 UTC
Wind
  • 170° at 6 KTS
Visibility
10 SM
Flight Rules
VFR
Cloud Levels
  • Overcast at 10,000' AGL
Temperature
22°C / 72°F
Dewpoint
20°C / 68°F
Humidity
88%
Altimeter
30.18" Hg
Pressure
1022.02 hPa